createdAt,value
2023-04-30T00:00:28.445Z,68.57
2023-04-30T00:02:55.379Z,68.55
2023-04-30T00:05:21.885Z,67.77
2023-04-30T00:07:48.301Z,68.96
2023-04-30T00:10:14.731Z,68.13
2023-04-30T00:12:41.186Z,69.16
2023-04-30T00:15:08.052Z,68.27
2023-04-30T00:17:34.518Z,69.44
2023-04-30T00:20:01.223Z,69.74
2023-04-30T00:22:27.714Z,68.88
2023-04-30T00:24:54.138Z,68.33
2023-04-30T00:27:21.086Z,68.67
2023-04-30T00:29:47.492Z,69.48
2023-04-30T00:32:14.058Z,67.55
2023-04-30T00:34:41.136Z,68.18
2023-04-30T00:37:07.564Z,68.23
2023-04-30T00:39:33.937Z,67.97
2023-04-30T00:42:00.880Z,67.10
2023-04-30T00:44:27.294Z,66.43
2023-04-30T00:46:53.725Z,67.28
2023-04-30T00:49:20.977Z,67.88
2023-04-30T00:51:47.859Z,67.11
2023-04-30T00:54:14.591Z,66.88
2023-04-30T00:56:41.373Z,66.83
2023-04-30T00:59:08.384Z,67.32
2023-04-30T01:01:35.059Z,66.69
2023-04-30T01:04:01.689Z,65.87
2023-04-30T01:06:28.475Z,66.71
2023-04-30T01:08:57.168Z,65.85
2023-04-30T01:11:47.794Z,65.77
2023-04-30T01:14:25.126Z,66.04
2023-04-30T01:17:04.661Z,66.00
2023-04-30T01:19:36.952Z,66.06
2023-04-30T01:22:04.879Z,65.54
2023-04-30T01:24:59.663Z,65.74
2023-04-30T01:27:47.782Z,65.54
2023-04-30T01:30:15.715Z,64.86
2023-04-30T01:32:42.201Z,64.94
2023-04-30T01:35:09.031Z,64.93
2023-04-30T01:37:52.584Z,64.78
2023-04-30T01:40:35.292Z,64.91
2023-04-30T01:43:11.144Z,65.91
2023-04-30T01:46:23.644Z,64.34
2023-04-30T01:49:13.624Z,64.83
2023-04-30T01:51:42.452Z,64.91
2023-04-30T01:54:47.542Z,65.34
2023-04-30T01:57:21.566Z,65.57
2023-04-30T01:59:48.205Z,66.25
2023-04-30T02:02:14.583Z,66.09
2023-04-30T02:04:41.280Z,66.16
2023-04-30T02:07:08.037Z,66.19
2023-04-30T02:09:34.423Z,65.00
2023-04-30T02:12:00.950Z,65.88
2023-04-30T02:14:27.452Z,65.05
2023-04-30T02:16:53.867Z,65.49
2023-04-30T02:19:20.240Z,65.67
2023-04-30T02:21:46.644Z,66.07
2023-04-30T02:24:13.087Z,65.12
2023-04-30T02:26:39.468Z,66.38
2023-04-30T02:29:05.885Z,65.41
2023-04-30T02:31:32.353Z,65.36
2023-04-30T02:33:58.866Z,65.52
2023-04-30T02:36:25.349Z,66.19
2023-04-30T02:38:51.716Z,65.67
2023-04-30T02:41:18.138Z,65.72
2023-04-30T02:43:44.582Z,66.21
2023-04-30T02:46:10.983Z,66.47
2023-04-30T02:48:37.393Z,65.75
2023-04-30T02:51:04.607Z,65.71
2023-04-30T02:53:31.144Z,66.17
2023-04-30T02:55:59.062Z,65.78
2023-04-30T02:58:25.537Z,66.87
2023-04-30T03:00:51.995Z,65.66
2023-04-30T03:03:18.464Z,66.03
2023-04-30T03:05:44.937Z,66.34
2023-04-30T03:08:11.369Z,66.51
2023-04-30T03:10:37.740Z,67.45
2023-04-30T03:13:04.191Z,65.95
2023-04-30T03:15:33.513Z,66.19
2023-04-30T03:18:00.047Z,66.50
2023-04-30T03:20:26.507Z,66.94
2023-04-30T03:22:52.911Z,67.41
2023-04-30T03:25:19.378Z,65.90
2023-04-30T03:27:45.793Z,66.76
2023-04-30T03:30:12.195Z,67.69
2023-04-30T03:32:38.925Z,66.76
2023-04-30T03:35:06.276Z,67.84
2023-04-30T03:37:32.670Z,67.34
2023-04-30T03:39:59.052Z,67.87
2023-04-30T03:42:25.496Z,66.98
2023-04-30T03:44:51.887Z,66.72
2023-04-30T03:47:18.394Z,67.77
2023-04-30T03:49:44.942Z,67.14
2023-04-30T03:52:11.395Z,67.38
2023-04-30T03:54:37.914Z,67.88
2023-04-30T03:57:04.485Z,67.22
2023-04-30T03:59:32.350Z,68.03
2023-04-30T04:02:01.111Z,67.60
2023-04-30T04:04:27.796Z,68.97
2023-04-30T04:06:54.307Z,67.52
2023-04-30T04:09:20.685Z,68.04
2023-04-30T04:11:47.136Z,68.35
2023-04-30T04:14:13.541Z,67.27
2023-04-30T04:16:40.171Z,67.79
2023-04-30T04:19:06.744Z,67.98
2023-04-30T04:21:33.406Z,68.72
2023-04-30T04:23:59.786Z,67.26
2023-04-30T04:26:26.258Z,67.76
2023-04-30T04:28:52.867Z,68.82
2023-04-30T04:31:20.566Z,67.91
2023-04-30T04:33:47.075Z,67.26
2023-04-30T04:36:13.471Z,68.53
2023-04-30T04:38:39.837Z,67.73
2023-04-30T04:41:06.267Z,67.76
2023-04-30T04:43:32.875Z,67.48
2023-04-30T04:45:59.347Z,67.72
2023-04-30T04:48:26.322Z,68.13
2023-04-30T04:50:53.000Z,66.67
2023-04-30T04:53:19.548Z,67.24
2023-04-30T04:55:45.984Z,67.13
2023-04-30T04:58:12.477Z,67.67
2023-04-30T05:00:39.340Z,67.79
2023-04-30T05:03:05.805Z,66.92
2023-04-30T05:05:32.465Z,67.52
2023-04-30T05:07:58.944Z,67.92
2023-04-30T05:10:25.513Z,67.16
2023-04-30T05:12:52.002Z,66.88
2023-04-30T05:15:18.523Z,67.53
2023-04-30T05:17:45.090Z,67.42
2023-04-30T05:20:12.644Z,66.21
2023-04-30T05:22:39.224Z,66.98
2023-04-30T05:25:06.584Z,67.32
2023-04-30T05:27:33.060Z,67.58
2023-04-30T05:29:59.615Z,66.57
2023-04-30T05:32:27.659Z,67.06
2023-04-30T05:34:54.121Z,66.03
2023-04-30T05:37:22.516Z,65.84
2023-04-30T05:39:49.159Z,65.67
2023-04-30T05:42:15.638Z,65.81
2023-04-30T05:44:42.051Z,66.88
2023-04-30T05:47:08.544Z,65.77
2023-04-30T05:49:36.173Z,65.85
2023-04-30T05:52:03.601Z,65.98
2023-04-30T05:54:31.046Z,65.87
2023-04-30T05:56:57.834Z,64.17
2023-04-30T05:59:24.409Z,64.20
2023-04-30T06:01:50.999Z,64.26
2023-04-30T06:04:17.599Z,63.57
2023-04-30T06:06:44.146Z,63.16
2023-04-30T06:09:10.674Z,63.24
2023-04-30T06:11:42.249Z,62.43
2023-04-30T06:14:10.210Z,62.27
2023-04-30T06:16:36.702Z,61.69
2023-04-30T06:19:03.258Z,61.47
2023-04-30T06:21:29.672Z,61.16
2023-04-30T06:23:56.108Z,61.42
2023-04-30T06:26:22.571Z,61.17
2023-04-30T06:28:48.984Z,60.35
2023-04-30T06:31:15.555Z,60.48
2023-04-30T06:33:42.041Z,59.20
2023-04-30T06:36:08.467Z,58.45
2023-04-30T06:38:34.863Z,59.56
2023-04-30T06:41:01.298Z,57.92
2023-04-30T06:43:27.703Z,56.52
2023-04-30T06:45:54.188Z,57.42
2023-04-30T06:48:20.889Z,57.13
2023-04-30T06:50:47.378Z,56.68
2023-04-30T06:53:15.011Z,55.65
2023-04-30T06:55:42.566Z,56.15
2023-04-30T06:58:08.995Z,55.34
2023-04-30T07:00:35.956Z,56.66
2023-04-30T07:03:03.814Z,55.65
2023-04-30T07:05:31.170Z,53.61
2023-04-30T07:07:58.522Z,53.82
2023-04-30T07:10:25.138Z,52.81
2023-04-30T07:12:51.696Z,53.48
2023-04-30T07:15:18.134Z,49.94
2023-04-30T07:17:44.753Z,51.27
2023-04-30T07:20:14.408Z,50.33
2023-04-30T07:22:44.375Z,50.58
2023-04-30T07:25:11.561Z,48.70
2023-04-30T07:27:38.429Z,50.40
2023-04-30T07:30:05.545Z,50.71
2023-04-30T07:32:32.074Z,49.41
2023-04-30T07:34:58.473Z,49.59
2023-04-30T07:37:24.940Z,48.31
2023-04-30T07:39:51.342Z,47.54
2023-04-30T07:42:17.728Z,48.58
2023-04-30T07:44:44.255Z,49.51
2023-04-30T07:47:10.706Z,49.08
2023-04-30T07:49:37.182Z,49.56
2023-04-30T07:52:03.757Z,48.84
2023-04-30T07:54:30.221Z,48.49
2023-04-30T07:56:56.743Z,47.29
2023-04-30T07:59:24.429Z,48.59
2023-04-30T08:01:51.621Z,48.89
2023-04-30T08:04:18.093Z,47.94
2023-04-30T08:06:44.742Z,47.36
2023-04-30T08:09:11.314Z,46.83
2023-04-30T08:11:37.703Z,47.35
2023-04-30T08:14:04.641Z,48.63
2023-04-30T08:16:31.086Z,47.81
2023-04-30T08:18:57.598Z,47.86
2023-04-30T08:21:24.243Z,47.10
2023-04-30T08:23:51.231Z,46.97
2023-04-30T08:26:17.619Z,46.99
2023-04-30T08:28:44.110Z,47.48
2023-04-30T08:31:10.655Z,47.63
2023-04-30T08:33:37.094Z,46.90
2023-04-30T08:36:03.726Z,45.94
2023-04-30T08:38:30.134Z,45.76
2023-04-30T08:41:16.893Z,46.69
2023-04-30T08:43:46.560Z,47.37
2023-04-30T08:46:13.836Z,46.39
2023-04-30T08:48:41.497Z,47.81
2023-04-30T08:51:08.327Z,48.05
2023-04-30T08:53:36.912Z,48.45
2023-04-30T08:56:04.309Z,46.90
2023-04-30T08:58:31.091Z,45.92
2023-04-30T09:00:59.446Z,47.54
2023-04-30T09:03:26.544Z,46.34
2023-04-30T09:05:52.957Z,46.55
2023-04-30T09:08:39.988Z,46.62
2023-04-30T09:11:27.528Z,47.07
2023-04-30T09:14:01.709Z,46.51
2023-04-30T09:16:33.523Z,47.97
2023-04-30T09:19:00.336Z,47.49
2023-04-30T09:21:34.153Z,45.77
2023-04-30T09:24:03.074Z,46.45
2023-04-30T09:26:34.498Z,47.17
2023-04-30T09:29:07.422Z,45.59
2023-04-30T09:31:35.989Z,46.19
2023-04-30T09:34:03.321Z,45.79
2023-04-30T09:36:31.446Z,47.07
2023-04-30T09:39:08.980Z,46.13
2023-04-30T09:41:36.831Z,44.86
2023-04-30T09:44:04.027Z,45.72
2023-04-30T09:46:32.116Z,44.81
2023-04-30T09:49:00.253Z,44.91
2023-04-30T09:51:27.081Z,45.07
2023-04-30T09:53:54.724Z,43.70
2023-04-30T09:56:23.863Z,44.13
2023-04-30T09:58:55.635Z,44.49
2023-04-30T10:01:22.819Z,45.94
2023-04-30T10:03:50.111Z,46.52
2023-04-30T10:06:18.482Z,45.82
2023-04-30T10:08:53.330Z,46.42
2023-04-30T10:11:23.578Z,47.57
2023-04-30T10:14:02.325Z,47.53
2023-04-30T10:16:43.755Z,46.53
2023-04-30T10:19:17.151Z,45.40
2023-04-30T10:21:46.113Z,45.16
2023-04-30T10:24:14.567Z,45.82
2023-04-30T10:26:41.527Z,46.96
2023-04-30T10:29:09.704Z,45.36
2023-04-30T10:31:37.554Z,47.12
2023-04-30T10:34:33.397Z,45.85
2023-04-30T10:37:05.783Z,44.55
2023-04-30T10:39:32.969Z,45.44
2023-04-30T10:42:04.650Z,45.38
2023-04-30T10:44:37.150Z,44.52
2023-04-30T10:47:04.746Z,45.69
2023-04-30T10:49:31.562Z,44.37
2023-04-30T10:52:03.613Z,45.41
2023-04-30T10:54:35.824Z,45.66
2023-04-30T10:57:14.531Z,45.13
2023-04-30T11:00:09.346Z,45.97
2023-04-30T11:02:40.780Z,46.89
2023-04-30T11:05:13.371Z,44.31
2023-04-30T11:08:01.226Z,43.76
2023-04-30T11:10:33.457Z,44.58
2023-04-30T11:13:04.878Z,44.92
2023-04-30T11:15:49.476Z,46.78
2023-04-30T11:18:16.264Z,46.58
2023-04-30T11:20:50.957Z,44.94
2023-04-30T11:23:37.853Z,46.40
2023-04-30T11:26:07.260Z,45.63
2023-04-30T11:28:37.579Z,44.85
2023-04-30T11:31:04.426Z,45.22
2023-04-30T11:33:32.609Z,44.53
2023-04-30T11:36:01.224Z,44.80
2023-04-30T11:38:46.189Z,45.28
2023-04-30T11:41:12.957Z,47.10
2023-04-30T11:43:39.426Z,45.53
2023-04-30T11:46:15.539Z,46.32
2023-04-30T11:48:44.496Z,45.22
2023-04-30T11:51:19.296Z,45.20
2023-04-30T11:53:50.892Z,44.23
2023-04-30T11:56:22.065Z,42.73
2023-04-30T11:58:50.110Z,43.08
2023-04-30T12:01:17.296Z,44.06
2023-04-30T12:03:49.126Z,43.27
2023-04-30T12:06:27.460Z,42.83
2023-04-30T12:08:57.493Z,42.83
2023-04-30T12:11:32.061Z,43.41
2023-04-30T12:14:07.339Z,43.44
2023-04-30T12:16:54.525Z,42.44
2023-04-30T12:19:25.249Z,43.10
2023-04-30T12:21:54.851Z,42.73
2023-04-30T12:24:21.514Z,42.77
2023-04-30T12:26:48.035Z,43.22
2023-04-30T12:29:18.841Z,43.62
2023-04-30T12:31:48.973Z,42.74
2023-04-30T12:34:15.925Z,44.86
2023-04-30T12:36:45.434Z,44.02
2023-04-30T12:39:15.820Z,43.34
2023-04-30T12:41:47.685Z,42.36
2023-04-30T12:44:25.951Z,42.98
2023-04-30T12:46:56.495Z,44.50
2023-04-30T12:49:35.329Z,45.14
2023-04-30T12:52:12.547Z,44.80
2023-04-30T12:54:39.927Z,43.80
2023-04-30T12:57:09.077Z,43.55
2023-04-30T12:59:39.279Z,43.67
2023-04-30T13:02:09.954Z,44.29
2023-04-30T13:04:37.005Z,43.77
2023-04-30T13:07:04.572Z,44.30
2023-04-30T13:09:33.731Z,42.75
2023-04-30T13:12:00.121Z,42.22
2023-04-30T13:14:27.052Z,41.46
2023-04-30T13:16:53.807Z,43.12
2023-04-30T13:19:20.539Z,42.21
2023-04-30T13:21:47.116Z,43.13
2023-04-30T13:24:13.653Z,42.32
2023-04-30T13:26:40.479Z,43.78
2023-04-30T13:29:07.229Z,43.82
2023-04-30T13:31:33.878Z,43.19
2023-04-30T13:34:00.809Z,42.57
2023-04-30T13:36:27.262Z,42.69
2023-04-30T13:38:53.869Z,42.57
2023-04-30T13:41:21.948Z,43.41
2023-04-30T13:43:49.269Z,44.05
2023-04-30T13:46:16.610Z,45.00
2023-04-30T13:48:43.195Z,44.09
2023-04-30T13:51:09.640Z,45.50
2023-04-30T13:53:37.247Z,45.38
2023-04-30T13:56:03.810Z,45.38
2023-04-30T13:58:30.197Z,44.63
2023-04-30T14:00:56.666Z,43.86
2023-04-30T14:03:23.292Z,44.29
2023-04-30T14:05:49.912Z,44.31
2023-04-30T14:08:16.421Z,43.85
2023-04-30T14:10:42.940Z,43.03
2023-04-30T14:13:09.346Z,44.12
2023-04-30T14:15:35.905Z,42.99
2023-04-30T14:18:02.400Z,42.19
2023-04-30T14:20:28.830Z,42.80
2023-04-30T14:22:55.409Z,43.98
2023-04-30T14:25:21.887Z,43.55
2023-04-30T14:27:48.294Z,43.18
2023-04-30T14:30:14.802Z,43.27
2023-04-30T14:32:41.493Z,43.47
2023-04-30T14:35:08.418Z,42.48
2023-04-30T14:37:34.877Z,40.83
2023-04-30T14:40:01.957Z,41.79
2023-04-30T14:42:28.521Z,42.57
2023-04-30T14:44:54.968Z,41.47
2023-04-30T14:47:22.522Z,41.40
2023-04-30T14:49:51.940Z,41.82
2023-04-30T14:52:18.550Z,42.71
2023-04-30T14:54:45.120Z,43.86
2023-04-30T14:57:11.599Z,43.65
2023-04-30T14:59:39.974Z,43.43
2023-04-30T15:02:07.072Z,43.14
2023-04-30T15:04:33.640Z,41.70
2023-04-30T15:07:00.788Z,42.51
2023-04-30T15:09:27.656Z,43.72
2023-04-30T15:11:54.174Z,43.76
2023-04-30T15:14:20.632Z,42.18
2023-04-30T15:16:47.077Z,42.71
2023-04-30T15:19:13.497Z,43.10
2023-04-30T15:21:40.053Z,43.92
2023-04-30T15:24:07.102Z,43.80
2023-04-30T15:26:33.551Z,42.21
2023-04-30T15:29:00.498Z,42.39
2023-04-30T15:31:27.199Z,43.21
2023-04-30T15:33:53.633Z,43.73
2023-04-30T15:36:23.210Z,42.33
2023-04-30T15:38:49.649Z,41.47
2023-04-30T15:41:16.129Z,42.76
2023-04-30T15:43:42.545Z,43.99
2023-04-30T15:46:09.164Z,43.11
2023-04-30T15:48:35.667Z,42.79
2023-04-30T15:51:02.172Z,44.50
2023-04-30T15:53:28.589Z,44.66
2023-04-30T15:55:56.772Z,44.27
2023-04-30T15:58:23.238Z,45.47
2023-04-30T16:00:49.644Z,44.17
2023-04-30T16:03:16.398Z,43.91
2023-04-30T16:05:43.695Z,44.36
2023-04-30T16:08:10.451Z,45.26
2023-04-30T16:10:37.436Z,43.34
2023-04-30T16:13:03.928Z,43.95
2023-04-30T16:15:30.572Z,44.33
2023-04-30T16:17:57.341Z,42.97
2023-04-30T16:20:24.246Z,42.69
2023-04-30T16:22:51.095Z,44.70
2023-04-30T16:25:17.487Z,43.86
2023-04-30T16:27:44.258Z,44.76
2023-04-30T16:30:11.160Z,43.86
2023-04-30T16:32:37.886Z,42.10
2023-04-30T16:35:04.599Z,42.58
2023-04-30T16:37:31.069Z,41.47
2023-04-30T16:39:57.822Z,43.79
2023-04-30T16:42:24.705Z,44.72
2023-04-30T16:44:51.126Z,45.36
2023-04-30T16:47:19.008Z,45.25
2023-04-30T16:49:45.455Z,43.99
2023-04-30T16:52:12.513Z,45.67
2023-04-30T16:54:38.911Z,43.13
2023-04-30T16:57:05.413Z,43.13
2023-04-30T16:59:31.862Z,43.38
2023-04-30T17:02:00.485Z,43.13
2023-04-30T17:04:27.249Z,43.08
2023-04-30T17:06:53.754Z,43.48
2023-04-30T17:09:20.362Z,42.77
2023-04-30T17:11:47.030Z,44.26
2023-04-30T17:14:13.418Z,46.00
2023-04-30T17:16:39.865Z,45.25
2023-04-30T17:19:07.638Z,46.46
2023-04-30T17:21:34.211Z,45.07
2023-04-30T17:24:01.594Z,45.96
2023-04-30T17:26:28.075Z,45.80
2023-04-30T17:28:54.525Z,44.45
2023-04-30T17:31:21.031Z,46.90
2023-04-30T17:33:48.470Z,45.38
2023-04-30T17:36:15.124Z,46.64
2023-04-30T17:38:41.898Z,46.51
2023-04-30T17:41:08.383Z,46.13
2023-04-30T17:43:34.834Z,46.05
2023-04-30T17:46:01.726Z,46.81
2023-04-30T17:48:28.294Z,46.82
2023-04-30T17:50:54.958Z,46.28
2023-04-30T17:53:21.378Z,46.13
2023-04-30T17:55:47.836Z,47.08
2023-04-30T17:58:14.365Z,46.72
2023-04-30T18:00:44.915Z,47.38
2023-04-30T18:03:11.565Z,46.42
2023-04-30T18:05:39.478Z,48.60
2023-04-30T18:08:06.629Z,53.47
2023-04-30T18:10:33.067Z,52.97
2023-04-30T18:12:59.606Z,55.61
2023-04-30T18:15:27.011Z,55.21
2023-04-30T18:17:54.212Z,53.10
2023-04-30T18:20:21.985Z,52.34
2023-04-30T18:22:48.498Z,52.71
2023-04-30T18:25:17.073Z,53.55
2023-04-30T18:27:43.801Z,55.57
2023-04-30T18:30:11.644Z,58.62
2023-04-30T18:32:38.571Z,58.95
2023-04-30T18:35:05.489Z,59.44
2023-04-30T18:37:31.878Z,59.65
2023-04-30T18:39:58.478Z,59.75
2023-04-30T18:42:25.017Z,60.90
2023-04-30T18:44:51.441Z,62.21
2023-04-30T18:47:18.032Z,62.76
2023-04-30T18:49:45.459Z,61.76
2023-04-30T18:52:12.149Z,62.42
2023-04-30T18:54:38.637Z,62.34
2023-04-30T18:57:05.791Z,62.04
2023-04-30T18:59:32.293Z,62.63
2023-04-30T19:01:59.147Z,64.11
2023-04-30T19:04:26.318Z,64.36
2023-04-30T19:06:54.964Z,65.46
2023-04-30T19:09:21.571Z,64.88
2023-04-30T19:11:48.888Z,65.11
2023-04-30T19:14:15.304Z,64.77
2023-04-30T19:16:41.788Z,65.14
2023-04-30T19:19:08.285Z,64.10
2023-04-30T19:21:36.259Z,65.37
2023-04-30T19:24:03.547Z,65.07
2023-04-30T19:26:34.083Z,65.88
2023-04-30T19:29:00.719Z,64.20
2023-04-30T19:31:27.311Z,65.82
2023-04-30T19:33:53.801Z,64.91
2023-04-30T19:36:20.280Z,64.69
2023-04-30T19:38:46.844Z,65.56
2023-04-30T19:41:13.427Z,65.55
2023-04-30T19:43:39.912Z,66.32
2023-04-30T19:46:06.407Z,65.01
2023-04-30T19:48:32.968Z,65.12
2023-04-30T19:51:02.379Z,65.96
2023-04-30T19:53:29.145Z,66.84
2023-04-30T19:55:55.684Z,67.51
2023-04-30T19:58:22.190Z,66.31
2023-04-30T20:00:48.760Z,67.03
2023-04-30T20:03:16.682Z,66.85
2023-04-30T20:05:44.958Z,65.78
2023-04-30T20:08:11.581Z,66.49
2023-04-30T20:10:38.650Z,61.97
2023-04-30T20:13:06.206Z,62.93
2023-04-30T20:15:33.082Z,64.77
2023-04-30T20:18:01.139Z,64.67
2023-04-30T20:20:28.983Z,64.84
2023-04-30T20:22:56.118Z,62.77
2023-04-30T20:25:25.382Z,60.69
2023-04-30T20:27:51.991Z,57.75
2023-04-30T20:30:18.558Z,57.02
2023-04-30T20:32:45.234Z,58.46
2023-04-30T20:35:11.697Z,57.29
2023-04-30T20:37:38.114Z,56.48
2023-04-30T20:40:07.676Z,56.77
2023-04-30T20:42:34.159Z,56.04
2023-04-30T20:45:01.920Z,56.69
2023-04-30T20:47:29.538Z,58.42
2023-04-30T20:49:57.795Z,57.31
2023-04-30T20:52:24.557Z,56.68
2023-04-30T20:54:51.110Z,57.36
2023-04-30T20:57:17.511Z,55.83
2023-04-30T20:59:44.828Z,57.64
2023-04-30T21:02:11.758Z,58.79
2023-04-30T21:04:38.295Z,57.89
2023-04-30T21:07:04.784Z,56.29
2023-04-30T21:09:32.691Z,56.77
2023-04-30T21:11:59.431Z,55.66
2023-04-30T21:14:26.060Z,57.07
2023-04-30T21:16:52.567Z,55.26
2023-04-30T21:19:19.006Z,55.79
2023-04-30T21:21:45.559Z,55.34
2023-04-30T21:24:12.035Z,56.05
2023-04-30T21:26:38.471Z,56.37
2023-04-30T21:29:05.100Z,55.12
2023-04-30T21:31:31.814Z,56.71
2023-04-30T21:33:58.501Z,56.98
2023-04-30T21:36:25.041Z,55.36
2023-04-30T21:38:51.633Z,56.71
2023-04-30T21:41:18.326Z,56.80
2023-04-30T21:43:44.781Z,57.55
2023-04-30T21:46:13.230Z,57.01
2023-04-30T21:48:39.707Z,58.01
2023-04-30T21:51:14.962Z,57.54
2023-04-30T21:53:42.257Z,57.63
2023-04-30T21:56:09.935Z,57.95
2023-04-30T21:58:36.776Z,58.20
2023-04-30T22:01:04.509Z,59.45
2023-04-30T22:03:35.071Z,60.42
2023-04-30T22:06:01.899Z,59.27
2023-04-30T22:08:28.690Z,59.85
2023-04-30T22:10:58.320Z,61.95
2023-04-30T22:13:28.581Z,62.23
2023-04-30T22:15:55.876Z,61.37
2023-04-30T22:18:24.344Z,63.08
2023-04-30T22:20:51.947Z,63.55
2023-04-30T22:23:21.106Z,63.18
2023-04-30T22:25:47.734Z,63.92
2023-04-30T22:28:16.805Z,64.99
2023-04-30T22:30:43.394Z,64.25
2023-04-30T22:33:09.971Z,65.19
2023-04-30T22:35:38.620Z,66.56
2023-04-30T22:38:06.105Z,65.49
2023-04-30T22:40:41.819Z,64.79
2023-04-30T22:43:09.408Z,66.60
2023-04-30T22:45:40.267Z,65.98
2023-04-30T22:48:09.630Z,67.66
2023-04-30T22:50:36.715Z,66.82
2023-04-30T22:53:03.323Z,67.07
2023-04-30T22:55:31.908Z,66.56
2023-04-30T22:58:01.760Z,67.80
2023-04-30T23:00:28.643Z,68.02
2023-04-30T23:02:55.545Z,68.12
2023-04-30T23:05:22.073Z,67.70
2023-04-30T23:07:49.382Z,68.20
2023-04-30T23:10:16.558Z,67.78
2023-04-30T23:12:43.176Z,67.62
2023-04-30T23:15:10.050Z,67.59
2023-04-30T23:17:36.563Z,67.55
2023-04-30T23:20:04.476Z,67.28
2023-04-30T23:22:31.546Z,66.34
2023-04-30T23:24:58.024Z,66.79
2023-04-30T23:27:24.611Z,66.02
2023-04-30T23:29:51.171Z,65.22
2023-04-30T23:32:17.693Z,65.11
2023-04-30T23:34:44.145Z,63.91
2023-04-30T23:37:10.535Z,64.27
2023-04-30T23:39:36.999Z,63.92
2023-04-30T23:42:03.432Z,64.23
2023-04-30T23:44:32.149Z,63.44
2023-04-30T23:47:00.791Z,63.84
2023-04-30T23:49:27.342Z,63.93
2023-04-30T23:51:53.911Z,63.15
2023-04-30T23:54:20.850Z,63.86
2023-04-30T23:56:47.257Z,63.92
2023-04-30T23:59:13.835Z,64.18
